sensor_id;sensor_type;location;lat;lon;timestamp;pressure;altitude;pressure_sealevel;temperature;humidity
15405;BME280;7801;48.124;11.590;2023-07-20T00:01:10;95230.41;;;23.52;53.06
15405;BME280;7801;48.124;11.590;2023-07-20T00:03:35;95231.16;;;23.53;54.86
15405;BME280;7801;48.124;11.590;2023-07-20T00:06:01;95241.66;;;23.58;54.47
15405;BME280;7801;48.124;11.590;2023-07-20T00:08:26;95231.94;;;23.53;53.20
15405;BME280;7801;48.124;11.590;2023-07-20T00:10:51;95237.00;;;23.55;54.79
15405;BME280;7801;48.124;11.590;2023-07-20T00:13:16;95241.56;;;23.51;53.82
15405;BME280;7801;48.124;11.590;2023-07-20T00:15:44;95238.88;;;23.51;53.90
15405;BME280;7801;48.124;11.590;2023-07-20T00:18:09;95228.81;;;23.48;54.21
15405;BME280;7801;48.124;11.590;2023-07-20T00:20:35;95224.50;;;23.40;53.93
15405;BME280;7801;48.124;11.590;2023-07-20T00:23:00;95224.91;;;23.42;54.08
15405;BME280;7801;48.124;11.590;2023-07-20T00:25:25;95221.44;;;23.45;54.34
15405;BME280;7801;48.124;11.590;2023-07-20T00:27:51;95222.94;;;23.39;54.00
15405;BME280;7801;48.124;11.590;2023-07-20T00:30:16;95227.56;;;23.35;53.69
15405;BME280;7801;48.124;11.590;2023-07-20T00:32:42;95224.47;;;23.36;53.34
15405;BME280;7801;48.124;11.590;2023-07-20T00:35:07;95224.13;;;23.41;54.28
15405;BME280;7801;48.124;11.590;2023-07-20T00:37:33;95231.13;;;23.46;54.91
15405;BME280;7801;48.124;11.590;2023-07-20T00:39:58;95235.34;;;23.43;54.46
15405;BME280;7801;48.124;11.590;2023-07-20T00:42:23;95243.88;;;23.45;53.60
15405;BME280;7801;48.124;11.590;2023-07-20T00:44:49;95251.63;;;23.47;54.17
15405;BME280;7801;48.124;11.590;2023-07-20T00:47:14;95253.50;;;23.39;53.51
15405;BME280;7801;48.124;11.590;2023-07-20T00:49:40;95255.38;;;23.31;53.63
15405;BME280;7801;48.124;11.590;2023-07-20T00:52:06;95248.47;;;23.38;54.72
15405;BME280;7801;48.124;11.590;2023-07-20T00:54:33;95245.75;;;23.38;55.41
15405;BME280;7801;48.124;11.590;2023-07-20T00:57:00;95247.63;;;23.30;55.68
15405;BME280;7801;48.124;11.590;2023-07-20T00:59:26;95246.50;;;23.35;55.06
15405;BME280;7801;48.124;11.590;2023-07-20T01:01:51;95249.19;;;23.31;54.70
15405;BME280;7801;48.124;11.590;2023-07-20T01:04:17;95255.38;;;23.31;54.25
15405;BME280;7801;48.124;11.590;2023-07-20T01:06:50;95249.19;;;23.27;53.94
15405;BME280;7801;48.124;11.590;2023-07-20T01:09:28;95261.56;;;23.32;54.67
15405;BME280;7801;48.124;11.590;2023-07-20T01:12:01;95253.81;;;23.30;55.36
15405;BME280;7801;48.124;11.590;2023-07-20T01:14:29;95256.16;;;23.32;54.61
15405;BME280;7801;48.124;11.590;2023-07-20T01:16:54;95250.31;;;23.23;54.17
15405;BME280;7801;48.124;11.590;2023-07-20T01:19:20;95244.91;;;23.26;55.54
15405;BME280;7801;48.124;11.590;2023-07-20T01:21:56;95239.53;;;23.34;53.79
15405;BME280;7801;48.124;11.590;2023-07-20T01:30:16;95241.78;;;23.21;54.66
15405;BME280;7801;48.124;11.590;2023-07-20T01:32:49;95247.22;;;23.28;55.73
15405;BME280;7801;48.124;11.590;2023-07-20T01:35:16;95244.84;;;23.19;55.20
15405;BME280;7801;48.124;11.590;2023-07-20T01:37:43;95243.69;;;23.17;56.08
15405;BME280;7801;48.124;11.590;2023-07-20T01:40:10;95246.41;;;23.20;56.80
15405;BME280;7801;48.124;11.590;2023-07-20T01:42:36;95241.38;;;23.19;56.70
15405;BME280;7801;48.124;11.590;2023-07-20T01:45:01;95247.56;;;23.19;56.18
15405;BME280;7801;48.124;11.590;2023-07-20T01:47:26;95247.50;;;23.12;55.82
15405;BME280;7801;48.124;11.590;2023-07-20T01:49:52;95255.25;;;23.14;55.46
15405;BME280;7801;48.124;11.590;2023-07-20T01:52:17;95255.63;;;23.12;56.38
15405;BME280;7801;48.124;11.590;2023-07-20T01:54:42;95247.91;;;23.14;56.76
15405;BME280;7801;48.124;11.590;2023-07-20T01:57:08;95251.44;;;23.18;56.53
15405;BME280;7801;48.124;11.590;2023-07-20T01:59:33;95251.72;;;23.06;55.82
15405;BME280;7801;48.124;11.590;2023-07-20T02:01:58;95255.22;;;23.10;56.21
15405;BME280;7801;48.124;11.590;2023-07-20T02:04:23;95252.06;;;23.01;55.05
15405;BME280;7801;48.124;11.590;2023-07-20T02:06:49;95248.19;;;22.99;56.02
15405;BME280;7801;48.124;11.590;2023-07-20T02:09:14;95252.44;;;23.00;56.49
15405;BME280;7801;48.124;11.590;2023-07-20T02:11:39;95251.31;;;23.04;56.44
15405;BME280;7801;48.124;11.590;2023-07-20T02:14:05;95255.19;;;23.03;56.42
15405;BME280;7801;48.124;11.590;2023-07-20T02:16:30;95254.44;;;23.06;56.85
15405;BME280;7801;48.124;11.590;2023-07-20T02:18:55;95253.66;;;23.06;56.35
15405;BME280;7801;48.124;11.590;2023-07-20T02:21:22;95256.69;;;23.01;56.19
15405;BME280;7801;48.124;11.590;2023-07-20T02:23:48;95250.50;;;23.00;56.47
15405;BME280;7801;48.124;11.590;2023-07-20T02:26:13;95253.63;;;23.02;57.20
15405;BME280;7801;48.124;11.590;2023-07-20T02:28:39;95254.34;;;22.95;55.64
15405;BME280;7801;48.124;11.590;2023-07-20T02:31:04;95253.56;;;22.95;55.74
15405;BME280;7801;48.124;11.590;2023-07-20T02:33:29;95261.69;;;22.95;56.14
15405;BME280;7801;48.124;11.590;2023-07-20T02:35:54;95253.84;;;22.83;55.45
15405;BME280;7801;48.124;11.590;2023-07-20T02:38:20;95251.16;;;22.83;56.19
15405;BME280;7801;48.124;11.590;2023-07-20T02:40:45;95255.41;;;22.87;56.66
15405;BME280;7801;48.124;11.590;2023-07-20T02:43:11;95250.97;;;22.65;56.08
15405;BME280;7801;48.124;11.590;2023-07-20T02:45:40;95249.41;;;22.64;56.25
15405;BME280;7801;48.124;11.590;2023-07-20T02:48:05;95251.28;;;22.60;55.53
15405;BME280;7801;48.124;11.590;2023-07-20T02:50:33;95251.69;;;22.62;56.17
15405;BME280;7801;48.124;11.590;2023-07-20T02:52:59;95261.03;;;22.72;55.99
15405;BME280;7801;48.124;11.590;2023-07-20T02:55:25;95257.88;;;22.62;55.30
15405;BME280;7801;48.124;11.590;2023-07-20T02:57:50;95277.59;;;22.67;55.78
15405;BME280;7801;48.124;11.590;2023-07-20T03:00:16;95281.94;;;22.75;56.39
15405;BME280;7801;48.124;11.590;2023-07-20T03:02:41;95287.78;;;22.77;56.96
15405;BME280;7801;48.124;11.590;2023-07-20T03:05:07;95295.47;;;22.75;58.36
15405;BME280;7801;48.124;11.590;2023-07-20T03:07:32;95295.06;;;22.73;58.95
15405;BME280;7801;48.124;11.590;2023-07-20T03:09:58;95283.78;;;22.63;59.49
15405;BME280;7801;48.124;11.590;2023-07-20T03:12:23;95279.44;;;22.55;59.83
15405;BME280;7801;48.124;11.590;2023-07-20T03:14:49;95276.28;;;22.50;60.37
15405;BME280;7801;48.124;11.590;2023-07-20T03:17:15;95281.69;;;22.50;60.82
15405;BME280;7801;48.124;11.590;2023-07-20T03:19:40;95288.50;;;22.37;61.33
15405;BME280;7801;48.124;11.590;2023-07-20T03:22:05;95291.25;;;22.40;61.58
15405;BME280;7801;48.124;11.590;2023-07-20T03:24:31;95292.25;;;22.28;61.67
15405;BME280;7801;48.124;11.590;2023-07-20T03:26:56;95299.97;;;22.26;61.90
15405;BME280;7801;48.124;11.590;2023-07-20T03:29:22;95295.84;;;22.36;61.54
15405;BME280;7801;48.124;11.590;2023-07-20T03:31:47;95305.72;;;22.21;61.98
15405;BME280;7801;48.124;11.590;2023-07-20T03:34:13;95313.84;;;22.25;62.72
15405;BME280;7801;48.124;11.590;2023-07-20T03:36:38;95330.41;;;22.20;63.10
15405;BME280;7801;48.124;11.590;2023-07-20T03:39:04;95313.03;;;22.21;63.23
15405;BME280;7801;48.124;11.590;2023-07-20T03:41:29;95319.09;;;22.11;63.74
15405;BME280;7801;48.124;11.590;2023-07-20T03:43:54;95314.34;;;22.04;63.78
15405;BME280;7801;48.124;11.590;2023-07-20T03:46:20;95312.06;;;22.03;64.40
15405;BME280;7801;48.124;11.590;2023-07-20T03:48:45;95316.59;;;21.99;64.45
15405;BME280;7801;48.124;11.590;2023-07-20T03:51:10;95312.06;;;22.03;64.62
15405;BME280;7801;48.124;11.590;2023-07-20T03:53:36;95308.38;;;21.91;64.83
15405;BME280;7801;48.124;11.590;2023-07-20T03:56:01;95312.66;;;21.92;64.44
15405;BME280;7801;48.124;11.590;2023-07-20T03:58:27;95312.66;;;21.92;64.95
15405;BME280;7801;48.124;11.590;2023-07-20T04:00:52;95312.22;;;21.90;64.89
15405;BME280;7801;48.124;11.590;2023-07-20T04:03:18;95315.03;;;21.98;64.63
15405;BME280;7801;48.124;11.590;2023-07-20T04:05:44;95327.50;;;22.06;64.54
15405;BME280;7801;48.124;11.590;2023-07-20T04:08:10;95326.50;;;21.91;64.35
15405;BME280;7801;48.124;11.590;2023-07-20T04:10:39;95328.03;;;21.88;64.46
15405;BME280;7801;48.124;11.590;2023-07-20T04:13:05;95325.31;;;21.88;64.65
15405;BME280;7801;48.124;11.590;2023-07-20T04:15:30;95332.69;;;21.91;64.29
15405;BME280;7801;48.124;11.590;2023-07-20T04:17:56;95322.72;;;21.95;64.23
15405;BME280;7801;48.124;11.590;2023-07-20T04:20:23;95328.75;;;21.85;65.12
15405;BME280;7801;48.124;11.590;2023-07-20T04:22:48;95318.72;;;21.86;64.69
15405;BME280;7801;48.124;11.590;2023-07-20T04:25:14;95322.91;;;21.80;64.93
15405;BME280;7801;48.124;11.590;2023-07-20T04:27:40;95326.28;;;21.73;64.67
15405;BME280;7801;48.124;11.590;2023-07-20T04:30:08;95324.06;;;21.82;64.27
15405;BME280;7801;48.124;11.590;2023-07-20T04:32:33;95327.19;;;21.84;64.46
15405;BME280;7801;48.124;11.590;2023-07-20T04:34:59;95325.69;;;21.87;64.44
15405;BME280;7801;48.124;11.590;2023-07-20T04:37:24;95322.97;;;21.87;64.63
15405;BME280;7801;48.124;11.590;2023-07-20T04:39:49;95328.03;;;21.88;64.32
15405;BME280;7801;48.124;11.590;2023-07-20T04:42:15;95331.97;;;21.94;64.22
15405;BME280;7801;48.124;11.590;2023-07-20T04:44:40;95333.53;;;21.95;64.31
15405;BME280;7801;48.124;11.590;2023-07-20T04:47:06;95334.16;;;21.85;64.01
15405;BME280;7801;48.124;11.590;2023-07-20T04:49:31;95336.78;;;21.78;64.48
15405;BME280;7801;48.124;11.590;2023-07-20T04:51:56;95334.50;;;21.84;64.27
15405;BME280;7801;48.124;11.590;2023-07-20T04:54:22;95334.19;;;21.89;63.85
15405;BME280;7801;48.124;11.590;2023-07-20T04:56:50;95326.94;;;21.93;63.67
15405;BME280;7801;48.124;11.590;2023-07-20T04:59:15;95338.88;;;21.92;63.34
15405;BME280;7801;48.124;11.590;2023-07-20T05:01:41;95335.72;;;21.86;62.99
15405;BME280;7801;48.124;11.590;2023-07-20T05:04:06;95334.31;;;21.96;64.73
15405;BME280;7801;48.124;11.590;2023-07-20T05:06:32;95344.94;;;21.82;62.35
15405;BME280;7801;48.124;11.590;2023-07-20T05:08:57;95343.87;;;21.90;62.93
15405;BME280;7801;48.124;11.590;2023-07-20T05:11:22;95343.41;;;21.84;61.91
15405;BME280;7801;48.124;11.590;2023-07-20T05:13:48;95341.84;;;21.83;62.20
15405;BME280;7801;48.124;11.590;2023-07-20T05:16:13;95350.34;;;21.85;62.68
15405;BME280;7801;48.124;11.590;2023-07-20T05:18:38;95349.69;;;21.92;61.97
15405;BME280;7801;48.124;11.590;2023-07-20T05:21:05;95344.75;;;21.98;62.26
15405;BME280;7801;48.124;11.590;2023-07-20T05:23:31;95348.81;;;21.84;60.97
15405;BME280;7801;48.124;11.590;2023-07-20T05:25:59;95353.41;;;21.80;61.12
15405;BME280;7801;48.124;11.590;2023-07-20T05:28:25;95350.22;;;21.75;61.61
15405;BME280;7801;48.124;11.590;2023-07-20T05:30:52;95350.16;;;21.71;59.02
15405;BME280;7801;48.124;11.590;2023-07-20T05:33:18;95347.34;;;21.90;59.14
15405;BME280;7801;48.124;11.590;2023-07-20T05:35:44;95344.34;;;21.95;60.14
15405;BME280;7801;48.124;11.590;2023-07-20T05:38:09;95339.88;;;21.80;58.61
15405;BME280;7801;48.124;11.590;2023-07-20T05:40:37;95346.50;;;21.86;57.98
15405;BME280;7801;48.124;11.590;2023-07-20T05:43:03;95351.25;;;21.93;58.95
15405;BME280;7801;48.124;11.590;2023-07-20T05:45:28;95352.81;;;21.94;58.41
15405;BME280;7801;48.124;11.590;2023-07-20T05:47:53;95353.03;;;21.82;57.22
15405;BME280;7801;48.124;11.590;2023-07-20T05:50:19;95348.91;;;21.91;57.01
15405;BME280;7801;48.124;11.590;2023-07-20T05:52:44;95359.34;;;21.93;58.49
15405;BME280;7801;48.124;11.590;2023-07-20T05:55:09;95353.22;;;21.96;59.56
15405;BME280;7801;48.124;11.590;2023-07-20T05:57:35;95359.66;;;21.88;58.03
15405;BME280;7801;48.124;11.590;2023-07-20T06:00:00;95357.31;;;21.86;57.73
15405;BME280;7801;48.124;11.590;2023-07-20T06:02:26;95366.47;;;21.78;57.35
15405;BME280;7801;48.124;11.590;2023-07-20T06:04:51;95360.38;;;21.85;57.29
15405;BME280;7801;48.124;11.590;2023-07-20T06:07:16;95362.59;;;21.76;55.58
15405;BME280;7801;48.124;11.590;2023-07-20T06:09:42;95369.50;;;21.73;57.10
15405;BME280;7801;48.124;11.590;2023-07-20T06:12:08;95365.88;;;21.66;56.79
15405;BME280;7801;48.124;11.590;2023-07-20T06:14:34;95360.25;;;21.74;57.63
15405;BME280;7801;48.124;11.590;2023-07-20T06:16:59;95364.00;;;22.19;59.69
15405;BME280;7801;48.124;11.590;2023-07-20T06:19:24;95364.31;;;22.47;55.97
15405;BME280;7801;48.124;11.590;2023-07-20T06:21:50;95363.22;;;22.52;54.05
15405;BME280;7801;48.124;11.590;2023-07-20T06:24:16;95356.94;;;22.41;54.05
15405;BME280;7801;48.124;11.590;2023-07-20T06:26:42;95361.63;;;22.47;53.65
15405;BME280;7801;48.124;11.590;2023-07-20T06:29:07;95370.50;;;22.44;53.02
15405;BME280;7801;48.124;11.590;2023-07-20T06:31:34;95369.34;;;22.15;53.75
15405;BME280;7801;48.124;11.590;2023-07-20T06:34:00;95367.09;;;22.21;52.72
15405;BME280;7801;48.124;11.590;2023-07-20T06:36:26;95369.44;;;22.22;53.50
15405;BME280;7801;48.124;11.590;2023-07-20T06:38:52;95366.94;;;21.84;53.69
15405;BME280;7801;48.124;11.590;2023-07-20T06:41:18;95361.75;;;21.98;54.20
15405;BME280;7801;48.124;11.590;2023-07-20T06:43:43;95363.31;;;21.99;52.12
15405;BME280;7801;48.124;11.590;2023-07-20T06:46:09;95360.63;;;22.29;52.82
15405;BME280;7801;48.124;11.590;2023-07-20T06:48:34;95361.81;;;22.32;52.35
15405;BME280;7801;48.124;11.590;2023-07-20T06:50:59;95369.44;;;22.22;51.71
15405;BME280;7801;48.124;11.590;2023-07-20T06:53:25;95369.56;;;22.33;52.28
15405;BME280;7801;48.124;11.590;2023-07-20T06:55:50;95356.44;;;22.02;53.06
15405;BME280;7801;48.124;11.590;2023-07-20T06:58:16;95354.41;;;21.99;51.53
15405;BME280;7801;48.124;11.590;2023-07-20T07:00:43;95365.34;;;21.79;51.87
15405;BME280;7801;48.124;11.590;2023-07-20T07:03:08;95363.09;;;22.11;53.19
15405;BME280;7801;48.124;11.590;2023-07-20T07:05:37;95363.06;;;22.08;52.94
15405;BME280;7801;48.124;11.590;2023-07-20T07:08:04;95362.38;;;22.14;52.75
15405;BME280;7801;48.124;11.590;2023-07-20T07:10:29;95360.47;;;22.15;53.04
15405;BME280;7801;48.124;11.590;2023-07-20T07:12:55;95355.19;;;21.99;53.36
15405;BME280;7801;48.124;11.590;2023-07-20T07:15:20;95355.34;;;22.10;52.83
15405;BME280;7801;48.124;11.590;2023-07-20T07:17:45;95358.47;;;22.12;52.55
15405;BME280;7801;48.124;11.590;2023-07-20T07:20:11;95365.59;;;21.97;54.14
15405;BME280;7801;48.124;11.590;2023-07-20T07:22:36;95362.22;;;22.04;53.71
15405;BME280;7801;48.124;11.590;2023-07-20T07:25:01;95368.50;;;21.85;51.31
15405;BME280;7801;48.124;11.590;2023-07-20T07:27:28;95362.84;;;22.20;52.91
15405;BME280;7801;48.124;11.590;2023-07-20T07:29:53;95362.13;;;22.23;51.27
15405;BME280;7801;48.124;11.590;2023-07-20T07:32:20;95358.34;;;22.31;50.40
15405;BME280;7801;48.124;11.590;2023-07-20T07:34:45;95362.31;;;22.11;51.72
15405;BME280;7801;48.124;11.590;2023-07-20T07:37:13;95357.03;;;22.18;51.90
15405;BME280;7801;48.124;11.590;2023-07-20T07:39:39;95368.88;;;22.10;52.12
15405;BME280;7801;48.124;11.590;2023-07-20T07:42:05;95369.19;;;22.05;52.12
15405;BME280;7801;48.124;11.590;2023-07-20T07:44:30;95373.13;;;22.11;52.09
15405;BME280;7801;48.124;11.590;2023-07-20T07:46:56;95379.47;;;22.22;52.07
15405;BME280;7801;48.124;11.590;2023-07-20T07:49:21;95371.84;;;22.01;49.71
15405;BME280;7801;48.124;11.590;2023-07-20T07:51:47;95364.12;;;22.03;50.50
15405;BME280;7801;48.124;11.590;2023-07-20T07:54:12;95367.50;;;21.97;49.68
15405;BME280;7801;48.124;11.590;2023-07-20T07:56:37;95370.94;;;21.93;50.21
15405;BME280;7801;48.124;11.590;2023-07-20T07:59:03;95370.84;;;22.13;52.63
15405;BME280;7801;48.124;11.590;2023-07-20T08:01:28;95370.91;;;22.16;50.57
15405;BME280;7801;48.124;11.590;2023-07-20T08:03:54;95371.16;;;22.08;50.38
15405;BME280;7801;48.124;11.590;2023-07-20T08:06:19;95376.78;;;22.22;51.08
15405;BME280;7801;48.124;11.590;2023-07-20T08:08:44;95373.38;;;22.28;51.68
15405;BME280;7801;48.124;11.590;2023-07-20T08:11:10;95375.69;;;22.30;51.17
15405;BME280;7801;48.124;11.590;2023-07-20T08:13:36;95375.03;;;22.37;50.14
15405;BME280;7801;48.124;11.590;2023-07-20T08:16:02;95375.75;;;22.34;51.12
15405;BME280;7801;48.124;11.590;2023-07-20T08:18:27;95375.63;;;22.23;50.51
15405;BME280;7801;48.124;11.590;2023-07-20T08:20:53;95377.41;;;22.42;51.38
15405;BME280;7801;48.124;11.590;2023-07-20T08:23:19;95375.97;;;22.51;50.40
15405;BME280;7801;48.124;11.590;2023-07-20T08:25:44;95378.69;;;22.51;50.30
15405;BME280;7801;48.124;11.590;2023-07-20T08:28:19;95377.53;;;22.52;50.76
15405;BME280;7801;48.124;11.590;2023-07-20T08:30:47;95369.91;;;22.61;51.62
15405;BME280;7801;48.124;11.590;2023-07-20T08:33:14;95382.66;;;22.61;52.13
15405;BME280;7801;48.124;11.590;2023-07-20T08:35:39;95378.44;;;22.63;51.12
15405;BME280;7801;48.124;11.590;2023-07-20T08:38:05;95374.25;;;22.70;52.40
15405;BME280;7801;48.124;11.590;2023-07-20T08:40:32;95380.91;;;22.76;52.38
15405;BME280;7801;48.124;11.590;2023-07-20T08:42:58;95374.03;;;22.82;51.83
15405;BME280;7801;48.124;11.590;2023-07-20T08:45:26;95372.84;;;22.79;51.05
15405;BME280;7801;48.124;11.590;2023-07-20T08:47:52;95375.63;;;22.86;51.73
15405;BME280;7801;48.124;11.590;2023-07-20T08:50:19;95375.22;;;22.84;50.83
15405;BME280;7801;48.124;11.590;2023-07-20T08:52:46;95374.03;;;22.82;51.49
15405;BME280;7801;48.124;11.590;2023-07-20T08:55:12;95374.03;;;22.82;51.81
15405;BME280;7801;48.124;11.590;2023-07-20T08:57:38;95380.22;;;22.82;52.03
15405;BME280;7801;48.124;11.590;2023-07-20T09:00:07;95379.19;;;22.94;52.54
15405;BME280;7801;48.124;11.590;2023-07-20T09:02:38;95374.91;;;22.93;51.68
15405;BME280;7801;48.124;11.590;2023-07-20T09:05:06;95377.38;;;23.05;52.89
15405;BME280;7801;48.124;11.590;2023-07-20T09:07:33;95373.13;;;23.04;52.05
15405;BME280;7801;48.124;11.590;2023-07-20T09:10:00;95368.69;;;22.89;52.21
15405;BME280;7801;48.124;11.590;2023-07-20T09:12:31;95370.69;;;22.95;51.33
15405;BME280;7801;48.124;11.590;2023-07-20T09:14:57;95366.97;;;22.74;51.81
15405;BME280;7801;48.124;11.590;2023-07-20T09:17:25;95358.69;;;22.93;51.03
15405;BME280;7801;48.124;11.590;2023-07-20T09:19:50;95365.25;;;22.92;51.37
15405;BME280;7801;48.124;11.590;2023-07-20T09:22:16;95369.63;;;23.04;50.99
15405;BME280;7801;48.124;11.590;2023-07-20T09:24:42;95354.59;;;23.06;50.58
15405;BME280;7801;48.124;11.590;2023-07-20T09:27:07;95356.44;;;22.99;50.28
15405;BME280;7801;48.124;11.590;2023-07-20T09:29:35;95362.22;;;22.97;50.04
15405;BME280;7801;48.124;11.590;2023-07-20T09:32:12;95356.38;;;22.95;49.84
15405;BME280;7801;48.124;11.590;2023-07-20T09:34:37;95354.97;;;23.08;48.62
15405;BME280;7801;48.124;11.590;2023-07-20T09:37:03;95353.44;;;23.11;48.58
15405;BME280;7801;48.124;11.590;2023-07-20T09:39:28;95361.84;;;22.99;47.56
15405;BME280;7801;48.124;11.590;2023-07-20T09:41:54;95357.22;;;22.99;48.37
15405;BME280;7801;48.124;11.590;2023-07-20T09:44:19;95348.00;;;23.07;48.74
15405;BME280;7801;48.124;11.590;2023-07-20T09:46:46;95353.81;;;23.06;48.50
15405;BME280;7801;48.124;11.590;2023-07-20T09:49:11;95345.03;;;23.19;50.40
15405;BME280;7801;48.124;11.590;2023-07-20T09:51:37;95354.66;;;23.17;49.28
15405;BME280;7801;48.124;11.590;2023-07-20T09:54:04;95347.03;;;23.26;49.49
15405;BME280;7801;48.124;11.590;2023-07-20T09:56:30;95347.28;;;23.14;49.03
15405;BME280;7801;48.124;11.590;2023-07-20T09:58:56;95338.38;;;23.13;50.77
15405;BME280;7801;48.124;11.590;2023-07-20T10:01:23;95342.31;;;23.19;51.04
15405;BME280;7801;48.124;11.590;2023-07-20T10:03:54;95347.88;;;23.37;52.21
15405;BME280;7801;48.124;11.590;2023-07-20T10:06:23;95341.75;;;23.44;50.15
15405;BME280;7801;48.124;11.590;2023-07-20T10:08:52;95340.94;;;23.40;49.92
15405;BME280;7801;48.124;11.590;2023-07-20T10:11:18;95345.94;;;23.38;50.01
15405;BME280;7801;48.124;11.590;2023-07-20T10:13:49;95340.09;;;23.32;48.06
15405;BME280;7801;48.124;11.590;2023-07-20T10:16:28;95349.53;;;23.08;48.80
15405;BME280;7801;48.124;11.590;2023-07-20T10:19:07;95349.28;;;22.80;50.20
15405;BME280;7801;48.124;11.590;2023-07-20T10:21:35;95348.72;;;23.01;50.21
15405;BME280;7801;48.124;11.590;2023-07-20T10:24:02;95348.75;;;23.04;50.14
15405;BME280;7801;48.124;11.590;2023-07-20T10:26:29;95337.94;;;23.04;50.22
15405;BME280;7801;48.124;11.590;2023-07-20T10:28:55;95343.34;;;23.04;49.69
15405;BME280;7801;48.124;11.590;2023-07-20T10:31:22;95340.03;;;22.81;49.74
15405;BME280;7801;48.124;11.590;2023-07-20T10:33:48;95348.34;;;23.02;50.56
15405;BME280;7801;48.124;11.590;2023-07-20T10:36:15;95352.50;;;22.92;50.24
15405;BME280;7801;48.124;11.590;2023-07-20T10:44:07;95339.41;;;22.98;50.34
15405;BME280;7801;48.124;11.590;2023-07-20T10:49:59;95331.94;;;23.25;49.49
15405;BME280;7801;48.124;11.590;2023-07-20T10:52:25;95327.38;;;23.36;49.20
15405;BME280;7801;48.124;11.590;2023-07-20T10:54:50;95322.69;;;23.33;49.20
15405;BME280;7801;48.124;11.590;2023-07-20T10:57:30;95318.41;;;23.28;49.15
15405;BME280;7801;48.124;11.590;2023-07-20T11:00:13;95318.63;;;23.09;49.58
15405;BME280;7801;48.124;11.590;2023-07-20T11:02:46;95321.34;;;23.09;49.34
15405;BME280;7801;48.124;11.590;2023-07-20T11:05:44;95320.22;;;23.14;49.83
15405;BME280;7801;48.124;11.590;2023-07-20T11:08:10;95319.00;;;23.08;49.62
15405;BME280;7801;48.124;11.590;2023-07-20T11:10:36;95317.03;;;23.01;49.34
15405;BME280;7801;48.124;11.590;2023-07-20T11:13:21;95320.44;;;22.94;48.77
15405;BME280;7801;48.124;11.590;2023-07-20T11:18:25;95312.56;;;23.23;50.44
15405;BME280;7801;48.124;11.590;2023-07-20T11:20:51;95307.91;;;23.20;50.08
15405;BME280;7801;48.124;11.590;2023-07-20T11:23:17;95305.37;;;22.97;48.22
15405;BME280;7801;48.124;11.590;2023-07-20T11:25:44;95307.06;;;23.12;50.14
15405;BME280;7801;48.124;11.590;2023-07-20T11:28:09;95305.25;;;23.30;49.97
15405;BME280;7801;48.124;11.590;2023-07-20T11:30:38;95307.53;;;23.21;48.87
15405;BME280;7801;48.124;11.590;2023-07-20T11:33:06;95314.16;;;23.27;49.46
15405;BME280;7801;48.124;11.590;2023-07-20T11:35:42;95297.19;;;23.34;48.97
15405;BME280;7801;48.124;11.590;2023-07-20T11:38:08;95302.12;;;23.21;49.11
15405;BME280;7801;48.124;11.590;2023-07-20T11:40:33;95301.00;;;23.26;47.19
15405;BME280;7801;48.124;11.590;2023-07-20T11:42:59;95297.53;;;23.33;49.13
15405;BME280;7801;48.124;11.590;2023-07-20T11:45:25;95297.28;;;23.45;48.78
15405;BME280;7801;48.124;11.590;2023-07-20T11:47:50;95290.16;;;23.29;47.24
15405;BME280;7801;48.124;11.590;2023-07-20T11:50:16;95283.87;;;23.15;48.26
15405;BME280;7801;48.124;11.590;2023-07-20T11:52:41;95286.34;;;23.34;48.78
15405;BME280;7801;48.124;11.590;2023-07-20T11:55:07;95289.03;;;23.30;48.59
15405;BME280;7801;48.124;11.590;2023-07-20T11:57:33;95282.16;;;23.44;49.23
15405;BME280;7801;48.124;11.590;2023-07-20T12:00:02;95280.91;;;23.30;47.87
15405;BME280;7801;48.124;11.590;2023-07-20T12:02:30;95275.94;;;23.40;47.62
15405;BME280;7801;48.124;11.590;2023-07-20T12:04:56;95268.16;;;23.35;48.74
15405;BME280;7801;48.124;11.590;2023-07-20T12:07:22;95266.25;;;23.39;48.33
15405;BME280;7801;48.124;11.590;2023-07-20T12:10:08;95269.31;;;23.34;48.30
15405;BME280;7801;48.124;11.590;2023-07-20T12:12:43;95270.94;;;23.42;48.25
15405;BME280;7801;48.124;11.590;2023-07-20T12:17:50;95269.31;;;23.34;48.23
15405;BME280;7801;48.124;11.590;2023-07-20T12:20:33;95256.97;;;23.36;48.49
15405;BME280;7801;48.124;11.590;2023-07-20T12:25:45;95248.53;;;23.48;48.25
15405;BME280;7801;48.124;11.590;2023-07-20T12:28:16;95257.88;;;23.54;48.21
15405;BME280;7801;48.124;11.590;2023-07-20T12:30:42;95249.00;;;23.57;47.78
15405;BME280;7801;48.124;11.590;2023-07-20T12:33:09;95245.91;;;23.59;46.93
15405;BME280;7801;48.124;11.590;2023-07-20T12:35:35;95246.28;;;23.57;47.56
15405;BME280;7801;48.124;11.590;2023-07-20T12:38:01;95240.09;;;23.57;47.23
15405;BME280;7801;48.124;11.590;2023-07-20T12:40:26;95241.62;;;23.54;46.25
15405;BME280;7801;48.124;11.590;2023-07-20T12:42:52;95233.06;;;23.45;46.87
15405;BME280;7801;48.124;11.590;2023-07-20T12:45:17;95233.88;;;23.53;48.84
15405;BME280;7801;48.124;11.590;2023-07-20T12:47:43;95229.25;;;23.53;47.86
15405;BME280;7801;48.124;11.590;2023-07-20T12:50:09;95223.06;;;23.56;46.85
15405;BME280;7801;48.124;11.590;2023-07-20T12:52:39;95220.03;;;23.65;46.30
15405;BME280;7801;48.124;11.590;2023-07-20T12:55:06;95229.72;;;23.73;46.88
15405;BME280;7801;48.124;11.590;2023-07-20T12:57:36;95224.72;;;23.79;45.71
15405;BME280;7801;48.124;11.590;2023-07-20T13:00:03;95219.28;;;23.75;46.11
15405;BME280;7801;48.124;11.590;2023-07-20T13:02:30;95223.94;;;23.75;47.36
15405;BME280;7801;48.124;11.590;2023-07-20T13:04:56;95218.09;;;23.66;46.35
15405;BME280;7801;48.124;11.590;2023-07-20T13:07:30;95216.94;;;23.70;46.89
15405;BME280;7801;48.124;11.590;2023-07-20T13:09:56;95222.37;;;23.67;46.50
15405;BME280;7801;48.124;11.590;2023-07-20T13:12:21;95207.63;;;23.64;45.04
15405;BME280;7801;48.124;11.590;2023-07-20T13:14:46;95221.50;;;23.55;46.88
15405;BME280;7801;48.124;11.590;2023-07-20T13:17:12;95207.66;;;23.68;49.07
15405;BME280;7801;48.124;11.590;2023-07-20T13:19:37;95212.28;;;23.63;49.01